Time;durP1;ratioP1;P1;durP2;ratioP2;P2;SDS_P1;SDS_P2;PMS_P1;PMS_P2;Temp;Humidity;BMP_temperature;BMP_pressure;BME280_temperature;BME280_humidity;BME280_pressure;Samples;Min_cycle;Max_cycle;Signal;HPM_P1;HPM_P2
2023/05/05 00:00:56;;;;;;;3.10;1.50;;;;;;;;;;5022173;28;20068;-43
2023/05/05 00:03:23;;;;;;;3.75;1.42;;;;;;;;;;5023011;28;20029;-45
2023/05/05 00:05:50;;;;;;;4.47;1.83;;;;;;;;;;5024739;28;20124;-42
2023/05/05 00:08:16;;;;;;;2.25;1.60;;;;;;;;;;5023092;28;20029;-50
2023/05/05 00:10:44;;;;;;;5.40;1.95;;;;;;;;;;5022444;28;20038;-51
2023/05/05 00:13:10;;;;;;;2.50;1.40;;;;;;;;;;5020650;28;20018;-42
2023/05/05 00:15:35;;;;;;;5.38;2.00;;;;;;;;;;5025276;28;20124;-47
2023/05/05 00:18:01;;;;;;;1.67;1.48;;;;;;;;;;5022148;28;20029;-44
2023/05/05 00:20:26;;;;;;;2.20;1.60;;;;;;;;;;5020989;28;20021;-43
2023/05/05 00:22:51;;;;;;;3.83;1.55;;;;;;;;;;5022863;28;20355;-43
2023/05/05 00:25:17;;;;;;;4.80;1.77;;;;;;;;;;5022468;28;20072;-42
2023/05/05 00:27:42;;;;;;;4.10;1.50;;;;;;;;;;5024047;28;20036;-42
2023/05/05 00:30:08;;;;;;;2.38;1.60;;;;;;;;;;5023797;28;20760;-44
2023/05/05 00:32:33;;;;;;;6.55;1.50;;;;;;;;;;5022433;28;20026;-42
2023/05/05 00:34:59;;;;;;;1.77;1.60;;;;;;;;;;5022859;28;20056;-42
2023/05/05 00:37:24;;;;;;;3.83;1.38;;;;;;;;;;5018676;28;20042;-44
2023/05/05 00:39:49;;;;;;;4.63;1.85;;;;;;;;;;5025772;28;20071;-51
2023/05/05 00:42:15;;;;;;;4.43;1.63;;;;;;;;;;5022428;28;20112;-47
2023/05/05 00:44:41;;;;;;;8.30;1.92;;;;;;;;;;5024044;28;20782;-42
2023/05/05 00:47:11;;;;;;;2.63;1.75;;;;;;;;;;5020269;28;20048;-41
2023/05/05 00:49:37;;;;;;;3.85;1.58;;;;;;;;;;5021159;28;20116;-44
2023/05/05 00:52:03;;;;;;;2.67;1.30;;;;;;;;;;5019446;28;20129;-42
2023/05/05 00:54:28;;;;;;;1.52;1.25;;;;;;;;;;5023827;28;20104;-46
2023/05/05 00:56:54;;;;;;;1.60;1.50;;;;;;;;;;5019605;28;20121;-42
2023/05/05 00:59:19;;;;;;;2.35;1.48;;;;;;;;;;5022981;28;20041;-42
2023/05/05 01:01:45;;;;;;;2.00;1.48;;;;;;;;;;5022636;28;20033;-42
2023/05/05 01:04:10;;;;;;;4.68;1.65;;;;;;;;;;5022950;28;20124;-42
2023/05/05 01:07:01;;;;;;;3.40;1.73;;;;;;;;;;5020732;28;20445;-43
2023/05/05 01:10:01;;;;;;;4.45;1.38;;;;;;;;;;5024210;28;20488;-41
2023/05/05 01:12:38;;;;;;;2.55;1.60;;;;;;;;;;5019993;28;20049;-44
2023/05/05 01:15:15;;;;;;;2.20;1.77;;;;;;;;;;5021384;28;20079;-42
2023/05/05 01:18:02;;;;;;;10.50;1.65;;;;;;;;;;5021158;28;20069;-45
2023/05/05 01:20:38;;;;;;;1.77;1.58;;;;;;;;;;5022220;28;20029;-41
2023/05/05 01:23:08;;;;;;;6.47;1.88;;;;;;;;;;5020923;28;20084;-44
2023/05/05 01:26:01;;;;;;;3.97;1.67;;;;;;;;;;5017325;28;20041;-44
2023/05/05 01:28:41;;;;;;;1.58;1.48;;;;;;;;;;5021409;28;20041;-42
2023/05/05 01:31:12;;;;;;;4.22;1.60;;;;;;;;;;5017626;28;20041;-42
2023/05/05 01:33:46;;;;;;;1.58;1.48;;;;;;;;;;5019040;28;20024;-45
2023/05/05 01:42:58;;;;;;;2.10;1.50;;;;;;;;;;5013298;28;20445;-45
2023/05/05 01:45:27;;;;;;;3.40;1.50;;;;;;;;;;5020934;28;20125;-41
2023/05/05 01:47:54;;;;;;;11.48;1.60;;;;;;;;;;5022063;28;20032;-44
2023/05/05 01:50:21;;;;;;;5.07;1.83;;;;;;;;;;5020075;28;20120;-42
2023/05/05 01:52:49;;;;;;;3.40;1.65;;;;;;;;;;5022514;28;20030;-48
2023/05/05 01:55:17;;;;;;;4.57;1.60;;;;;;;;;;5021414;28;20034;-44
2023/05/05 01:57:45;;;;;;;7.53;1.70;;;;;;;;;;5020278;28;20044;-41
2023/05/05 02:00:11;;;;;;;5.63;1.58;;;;;;;;;;5022611;28;20479;-42
2023/05/05 02:02:39;;;;;;;2.90;1.60;;;;;;;;;;5022500;28;20372;-41
2023/05/05 02:05:05;;;;;;;3.15;1.77;;;;;;;;;;5020973;28;20030;-42
2023/05/05 02:07:32;;;;;;;2.60;1.80;;;;;;;;;;5024550;28;20041;-42
2023/05/05 02:09:59;;;;;;;1.60;1.27;;;;;;;;;;5020512;28;20816;-41
2023/05/05 02:12:25;;;;;;;1.40;1.30;;;;;;;;;;5021757;28;20501;-42
2023/05/05 02:14:52;;;;;;;2.33;1.60;;;;;;;;;;5022571;28;20030;-45
2023/05/05 02:17:20;;;;;;;1.50;1.40;;;;;;;;;;5021342;28;20793;-46
2023/05/05 02:19:48;;;;;;;1.60;1.42;;;;;;;;;;5021978;28;20077;-41
2023/05/05 02:22:15;;;;;;;2.05;1.70;;;;;;;;;;5022995;28;20044;-43
2023/05/05 02:24:40;;;;;;;2.63;1.50;;;;;;;;;;5019488;28;20048;-46
2023/05/05 02:27:07;;;;;;;1.92;1.45;;;;;;;;;;5025683;28;20041;-47
2023/05/05 02:29:52;;;;;;;1.23;1.13;;;;;;;;;;5026454;28;20094;-42
2023/05/05 02:32:32;;;;;;;4.22;1.60;;;;;;;;;;5024449;28;20502;-45
2023/05/05 02:35:03;;;;;;;2.05;1.42;;;;;;;;;;5023774;28;20056;-47
2023/05/05 02:37:30;;;;;;;3.05;1.50;;;;;;;;;;5027065;28;20363;-41
2023/05/05 02:40:09;;;;;;;2.17;1.70;;;;;;;;;;5022654;28;20509;-42
2023/05/05 02:42:38;;;;;;;5.38;1.63;;;;;;;;;;5023215;28;20033;-48
2023/05/05 02:45:08;;;;;;;2.60;1.30;;;;;;;;;;5023037;28;20387;-41
2023/05/05 02:47:37;;;;;;;2.05;1.67;;;;;;;;;;5025512;28;20061;-44
2023/05/05 02:50:04;;;;;;;2.97;1.65;;;;;;;;;;5025040;28;20727;-43
2023/05/05 02:52:30;;;;;;;2.75;1.42;;;;;;;;;;5023494;28;20033;-42
2023/05/05 02:54:57;;;;;;;2.75;1.60;;;;;;;;;;5024802;28;20104;-42
2023/05/05 02:57:30;;;;;;;4.47;1.50;;;;;;;;;;5021764;28;20683;-42
2023/05/05 03:00:06;;;;;;;2.95;1.70;;;;;;;;;;5025356;28;20112;-49
2023/05/05 03:03:04;;;;;;;1.60;1.50;;;;;;;;;;5019828;28;20134;-41
2023/05/05 03:05:36;;;;;;;1.60;1.50;;;;;;;;;;5023517;28;20060;-45
2023/05/05 03:08:25;;;;;;;1.58;1.30;;;;;;;;;;5022851;28;20037;-44
2023/05/05 03:11:26;;;;;;;2.95;1.27;;;;;;;;;;5023720;28;20546;-42
2023/05/05 03:13:59;;;;;;;2.33;1.60;;;;;;;;;;5016410;28;20052;-45
2023/05/05 03:16:26;;;;;;;3.38;1.42;;;;;;;;;;5026586;28;20689;-46
2023/05/05 03:18:52;;;;;;;2.38;1.30;;;;;;;;;;5023864;28;20057;-43
2023/05/05 03:21:19;;;;;;;1.33;1.17;;;;;;;;;;5026376;28;20054;-42
2023/05/05 03:23:44;;;;;;;1.00;1.00;;;;;;;;;;5025169;28;20039;-45
2023/05/05 03:26:10;;;;;;;1.30;1.20;;;;;;;;;;5024714;28;20037;-45
2023/05/05 03:28:35;;;;;;;1.30;1.30;;;;;;;;;;5021270;28;20112;-47
2023/05/05 03:31:01;;;;;;;2.53;1.15;;;;;;;;;;5025632;28;20529;-48
2023/05/05 03:33:27;;;;;;;14.10;1.50;;;;;;;;;;5022677;28;20064;-46
2023/05/05 03:35:52;;;;;;;1.50;1.20;;;;;;;;;;5021150;28;20439;-43
2023/05/05 03:38:17;;;;;;;3.28;1.27;;;;;;;;;;5023186;28;20021;-44
2023/05/05 03:40:43;;;;;;;4.68;1.40;;;;;;;;;;5024349;28;20042;-48
2023/05/05 03:43:08;;;;;;;1.30;1.20;;;;;;;;;;5024754;28;20056;-49
2023/05/05 03:45:34;;;;;;;2.35;1.23;;;;;;;;;;5025529;28;20044;-44
2023/05/05 03:47:59;;;;;;;3.05;1.30;;;;;;;;;;5024073;28;20478;-49
2023/05/05 03:50:24;;;;;;;1.20;1.20;;;;;;;;;;5023194;28;20402;-44
2023/05/05 03:52:50;;;;;;;1.45;1.17;;;;;;;;;;5026520;28;20021;-42
2023/05/05 03:55:15;;;;;;;1.30;1.20;;;;;;;;;;5025284;28;20021;-46
2023/05/05 03:57:41;;;;;;;4.82;1.40;;;;;;;;;;5024438;28;20127;-42
2023/05/05 04:00:09;;;;;;;5.32;1.40;;;;;;;;;;5024052;28;20037;-43
2023/05/05 04:02:35;;;;;;;1.20;1.10;;;;;;;;;;5024196;28;20038;-44
2023/05/05 04:05:00;;;;;;;1.58;1.17;;;;;;;;;;5023216;28;20036;-41
2023/05/05 04:07:25;;;;;;;1.58;1.25;;;;;;;;;;5023331;28;20514;-45
2023/05/05 04:09:51;;;;;;;2.90;1.23;;;;;;;;;;5025948;28;20036;-44
2023/05/05 04:12:16;;;;;;;1.40;1.10;;;;;;;;;;5023128;28;20041;-47
2023/05/05 04:14:42;;;;;;;1.20;1.10;;;;;;;;;;5025246;28;20022;-47
2023/05/05 04:17:07;;;;;;;1.65;1.35;;;;;;;;;;5019986;28;20052;-48
2023/05/05 04:19:32;;;;;;;1.67;1.00;;;;;;;;;;5025844;28;20040;-48
2023/05/05 04:21:58;;;;;;;3.08;1.33;;;;;;;;;;5023656;28;20487;-46
2023/05/05 04:24:24;;;;;;;3.45;1.27;;;;;;;;;;5025591;28;20049;-42
2023/05/05 04:26:50;;;;;;;1.25;1.15;;;;;;;;;;5021856;28;20049;-43
2023/05/05 04:29:16;;;;;;;1.45;1.20;;;;;;;;;;5020171;28;20038;-45
2023/05/05 04:31:42;;;;;;;3.20;1.48;;;;;;;;;;5022059;28;20509;-42
2023/05/05 04:34:07;;;;;;;1.20;1.15;;;;;;;;;;5023803;28;20083;-44
2023/05/05 04:36:33;;;;;;;2.40;1.35;;;;;;;;;;5021755;28;20037;-44
2023/05/05 04:38:58;;;;;;;1.38;1.23;;;;;;;;;;5022721;28;20486;-48
2023/05/05 04:41:24;;;;;;;1.75;1.20;;;;;;;;;;5020365;28;20041;-45
2023/05/05 04:43:49;;;;;;;8.73;1.13;;;;;;;;;;5024136;28;20041;-44
2023/05/05 04:46:14;;;;;;;2.50;1.17;;;;;;;;;;5018377;28;20120;-46
2023/05/05 04:48:40;;;;;;;1.23;1.10;;;;;;;;;;5024871;28;20540;-43
2023/05/05 04:51:06;;;;;;;4.22;1.42;;;;;;;;;;5023360;28;20037;-47
2023/05/05 04:53:31;;;;;;;2.10;1.33;;;;;;;;;;5024594;28;20030;-45
2023/05/05 04:55:59;;;;;;;2.72;1.35;;;;;;;;;;5022570;28;20085;-47
2023/05/05 04:58:24;;;;;;;4.00;1.67;;;;;;;;;;5024509;28;20603;-50
2023/05/05 05:00:50;;;;;;;2.78;1.10;;;;;;;;;;5024102;28;20042;-43
2023/05/05 05:03:15;;;;;;;1.40;1.25;;;;;;;;;;5020078;28;20025;-44
2023/05/05 05:05:42;;;;;;;3.33;1.13;;;;;;;;;;5023034;28;21822;-46
2023/05/05 05:08:08;;;;;;;3.60;1.25;;;;;;;;;;5019046;28;20029;-43
2023/05/05 05:10:34;;;;;;;1.23;1.13;;;;;;;;;;5022237;28;20056;-47
2023/05/05 05:12:59;;;;;;;2.55;1.35;;;;;;;;;;5024218;28;20420;-46
2023/05/05 05:15:25;;;;;;;3.40;1.20;;;;;;;;;;5017224;28;20088;-49
2023/05/05 05:17:50;;;;;;;5.85;1.45;;;;;;;;;;5026399;28;20030;-48
2023/05/05 05:20:16;;;;;;;1.30;1.20;;;;;;;;;;5022811;28;20032;-48
2023/05/05 05:22:41;;;;;;;2.28;1.20;;;;;;;;;;5024950;28;20095;-45
2023/05/05 05:25:07;;;;;;;4.85;1.30;;;;;;;;;;5022818;28;20047;-46
2023/05/05 05:27:32;;;;;;;6.78;1.13;;;;;;;;;;5021490;28;20045;-45
2023/05/05 05:29:58;;;;;;;1.45;1.25;;;;;;;;;;5023112;28;20033;-47
2023/05/05 05:32:23;;;;;;;2.00;1.50;;;;;;;;;;5022540;28;20048;-44
2023/05/05 05:34:48;;;;;;;1.98;1.48;;;;;;;;;;5021908;28;20032;-43
2023/05/05 05:37:14;;;;;;;2.22;1.15;;;;;;;;;;5021529;28;20136;-42
2023/05/05 05:39:39;;;;;;;4.05;0.90;;;;;;;;;;5021314;28;20038;-42
2023/05/05 05:42:04;;;;;;;4.97;1.30;;;;;;;;;;5022325;28;20046;-43
2023/05/05 05:44:30;;;;;;;1.55;1.20;;;;;;;;;;5017372;28;20030;-42
2023/05/05 05:46:56;;;;;;;6.00;1.40;;;;;;;;;;5019972;28;20034;-42
2023/05/05 05:49:21;;;;;;;5.70;1.52;;;;;;;;;;5022960;28;20029;-43
2023/05/05 05:51:47;;;;;;;1.08;1.00;;;;;;;;;;5019084;28;20042;-43
2023/05/05 05:54:13;;;;;;;4.05;1.00;;;;;;;;;;5023372;28;20029;-43
2023/05/05 05:56:38;;;;;;;1.17;0.77;;;;;;;;;;5023377;28;20053;-48
2023/05/05 05:59:06;;;;;;;2.17;1.23;;;;;;;;;;5022318;28;20385;-42
2023/05/05 06:01:39;;;;;;;1.50;1.08;;;;;;;;;;5023475;28;20077;-42
2023/05/05 06:04:04;;;;;;;1.85;1.15;;;;;;;;;;5028980;28;20029;-45
2023/05/05 06:06:30;;;;;;;6.07;1.73;;;;;;;;;;5023977;28;20042;-44
2023/05/05 06:08:55;;;;;;;1.98;1.20;;;;;;;;;;5025621;28;20029;-43
2023/05/05 06:11:21;;;;;;;3.38;1.30;;;;;;;;;;5025865;28;20037;-50
2023/05/05 06:13:46;;;;;;;1.35;1.10;;;;;;;;;;5027361;28;20064;-48
2023/05/05 06:16:12;;;;;;;2.22;1.42;;;;;;;;;;5024590;28;20041;-45
2023/05/05 06:18:37;;;;;;;6.40;1.20;;;;;;;;;;5016756;28;20021;-42
2023/05/05 06:21:02;;;;;;;3.88;1.15;;;;;;;;;;5026643;28;20452;-42
2023/05/05 06:23:28;;;;;;;3.10;1.05;;;;;;;;;;5024782;28;20033;-48
2023/05/05 06:25:54;;;;;;;2.33;1.00;;;;;;;;;;5026126;28;20113;-44
2023/05/05 06:28:20;;;;;;;3.08;1.27;;;;;;;;;;5021956;28;20028;-43
2023/05/05 06:30:45;;;;;;;1.85;1.05;;;;;;;;;;5020842;28;20033;-42
2023/05/05 06:33:10;;;;;;;5.72;1.00;;;;;;;;;;5024619;28;20034;-49
2023/05/05 06:35:36;;;;;;;5.68;1.17;;;;;;;;;;5024131;28;20096;-42
2023/05/05 06:38:02;;;;;;;1.27;1.10;;;;;;;;;;5021602;28;20512;-43
2023/05/05 06:40:27;;;;;;;3.63;1.45;;;;;;;;;;5024418;28;20045;-42
2023/05/05 06:42:52;;;;;;;2.28;1.05;;;;;;;;;;5027038;28;20036;-45
2023/05/05 06:45:18;;;;;;;4.22;1.20;;;;;;;;;;5020514;28;20036;-45
2023/05/05 06:47:43;;;;;;;1.63;1.05;;;;;;;;;;5025564;28;20028;-43
2023/05/05 06:50:09;;;;;;;1.45;0.98;;;;;;;;;;5025441;28;20057;-44
2023/05/05 06:52:34;;;;;;;5.55;1.20;;;;;;;;;;5025682;28;20038;-45
2023/05/05 06:55:00;;;;;;;1.30;1.10;;;;;;;;;;5023712;28;20052;-43
2023/05/05 06:57:25;;;;;;;1.42;1.20;;;;;;;;;;5023024;28;20042;-47
2023/05/05 06:59:52;;;;;;;1.10;0.88;;;;;;;;;;5024780;28;20033;-43
2023/05/05 07:02:19;;;;;;;1.08;0.80;;;;;;;;;;5024913;28;20049;-42
2023/05/05 07:04:45;;;;;;;2.65;0.80;;;;;;;;;;5023553;28;20026;-42
2023/05/05 07:07:10;;;;;;;2.13;1.05;;;;;;;;;;5023618;28;20044;-45
2023/05/05 07:09:35;;;;;;;3.08;0.90;;;;;;;;;;5024411;28;20026;-42
2023/05/05 07:12:02;;;;;;;1.65;1.15;;;;;;;;;;5024760;28;20103;-42
2023/05/05 07:14:27;;;;;;;4.60;1.13;;;;;;;;;;5023998;28;20030;-43
2023/05/05 07:16:53;;;;;;;3.65;0.90;;;;;;;;;;5023127;28;20040;-42
2023/05/05 07:19:18;;;;;;;2.75;1.08;;;;;;;;;;5023900;28;20025;-42
2023/05/05 07:21:43;;;;;;;3.70;1.00;;;;;;;;;;5024260;28;20409;-44
2023/05/05 07:24:09;;;;;;;3.70;1.15;;;;;;;;;;5025716;28;20033;-42
2023/05/05 07:26:34;;;;;;;1.63;0.93;;;;;;;;;;5025279;28;20061;-42
2023/05/05 07:29:01;;;;;;;2.47;1.15;;;;;;;;;;5020773;28;20045;-42
2023/05/05 07:31:26;;;;;;;4.05;1.10;;;;;;;;;;5023835;28;20453;-44
2023/05/05 07:33:52;;;;;;;11.73;1.42;;;;;;;;;;5026562;28;20029;-43
2023/05/05 07:36:17;;;;;;;1.45;0.88;;;;;;;;;;5022863;28;20037;-42
2023/05/05 07:38:43;;;;;;;0.80;0.65;;;;;;;;;;5026231;28;20037;-45
2023/05/05 07:41:10;;;;;;;3.42;0.80;;;;;;;;;;5024967;28;20064;-42
2023/05/05 07:43:36;;;;;;;1.15;0.63;;;;;;;;;;5023697;28;20040;-44
2023/05/05 07:46:02;;;;;;;2.53;0.70;;;;;;;;;;5021138;28;20124;-43
2023/05/05 07:48:27;;;;;;;1.20;0.60;;;;;;;;;;5023936;28;20471;-42
2023/05/05 07:50:53;;;;;;;10.90;0.60;;;;;;;;;;5023281;28;20029;-44
2023/05/05 07:53:19;;;;;;;1.13;0.85;;;;;;;;;;5024321;28;20033;-42
2023/05/05 07:55:45;;;;;;;4.28;0.77;;;;;;;;;;5024151;28;20100;-42
2023/05/05 07:58:10;;;;;;;0.80;0.80;;;;;;;;;;5021340;28;20482;-41
2023/05/05 08:00:36;;;;;;;0.90;0.60;;;;;;;;;;5023888;28;20149;-41
2023/05/05 08:03:01;;;;;;;1.77;1.20;;;;;;;;;;5023714;28;20026;-45
2023/05/05 08:05:27;;;;;;;1.75;0.65;;;;;;;;;;5022206;28;20045;-43
2023/05/05 08:07:52;;;;;;;1.33;0.90;;;;;;;;;;5024031;28;20072;-42
2023/05/05 08:10:18;;;;;;;4.63;1.25;;;;;;;;;;5019521;28;20467;-44
2023/05/05 08:12:45;;;;;;;2.10;1.05;;;;;;;;;;5022582;28;20107;-42
2023/05/05 08:15:10;;;;;;;5.85;1.15;;;;;;;;;;5025949;28;20025;-45
2023/05/05 08:17:52;;;;;;;6.55;1.70;;;;;;;;;;5022648;28;20037;-41
2023/05/05 08:20:18;;;;;;;8.13;1.60;;;;;;;;;;5022621;28;20033;-42
2023/05/05 08:22:44;;;;;;;12.32;1.50;;;;;;;;;;5022986;28;20800;-46
2023/05/05 08:25:11;;;;;;;2.78;1.10;;;;;;;;;;5021008;28;20064;-43
2023/05/05 08:27:38;;;;;;;3.03;1.48;;;;;;;;;;5025462;28;20088;-41
2023/05/05 08:30:05;;;;;;;3.30;1.30;;;;;;;;;;5024709;28;20132;-48
2023/05/05 08:32:30;;;;;;;5.68;1.20;;;;;;;;;;5018449;28;20034;-42
2023/05/05 08:34:56;;;;;;;3.95;0.93;;;;;;;;;;5020960;28;20021;-44
2023/05/05 08:37:21;;;;;;;1.42;0.85;;;;;;;;;;5021034;28;20034;-41
2023/05/05 08:39:47;;;;;;;3.95;1.00;;;;;;;;;;5020224;28;20025;-41
2023/05/05 08:42:12;;;;;;;1.48;0.90;;;;;;;;;;5024273;28;20418;-42
2023/05/05 08:44:37;;;;;;;2.42;0.90;;;;;;;;;;5024809;28;20025;-43
2023/05/05 08:47:04;;;;;;;4.05;0.90;;;;;;;;;;5022131;28;20037;-42
2023/05/05 08:49:37;;;;;;;1.10;0.93;;;;;;;;;;5022207;28;20367;-43
2023/05/05 08:52:04;;;;;;;2.97;1.00;;;;;;;;;;5023176;28;20041;-42
2023/05/05 08:54:33;;;;;;;5.55;1.85;;;;;;;;;;5023258;28;20556;-42
2023/05/05 08:57:01;;;;;;;1.20;1.10;;;;;;;;;;5021751;28;20053;-42
2023/05/05 08:59:30;;;;;;;3.05;1.33;;;;;;;;;;5020995;28;20030;-42
2023/05/05 09:01:57;;;;;;;1.05;0.95;;;;;;;;;;5022759;28;20565;-42
2023/05/05 09:04:23;;;;;;;1.48;0.80;;;;;;;;;;5023171;28;20060;-42
2023/05/05 09:06:48;;;;;;;5.50;0.70;;;;;;;;;;5022564;28;20060;-42
2023/05/05 09:09:14;;;;;;;3.20;0.95;;;;;;;;;;5017761;28;20123;-45
2023/05/05 09:11:40;;;;;;;0.70;0.70;;;;;;;;;;5022685;28;21122;-43
2023/05/05 09:14:06;;;;;;;3.22;1.00;;;;;;;;;;5023539;28;20124;-41
2023/05/05 09:16:32;;;;;;;2.58;0.80;;;;;;;;;;5020334;28;20030;-42
2023/05/05 09:19:03;;;;;;;0.95;0.90;;;;;;;;;;5022925;28;20112;-42
2023/05/05 09:21:29;;;;;;;5.68;0.70;;;;;;;;;;5022167;28;20493;-42
2023/05/05 09:24:09;;;;;;;5.55;0.70;;;;;;;;;;5021879;28;20167;-41
2023/05/05 09:26:43;;;;;;;8.55;0.60;;;;;;;;;;5021019;28;20061;-42
2023/05/05 09:29:08;;;;;;;1.10;0.50;;;;;;;;;;5023878;28;20482;-42
2023/05/05 09:31:35;;;;;;;1.33;0.80;;;;;;;;;;5019049;28;20088;-43
2023/05/05 09:34:11;;;;;;;1.10;0.60;;;;;;;;;;5019675;28;20491;-42
2023/05/05 09:36:46;;;;;;;3.05;0.47;;;;;;;;;;5017924;28;20077;-41
2023/05/05 09:39:18;;;;;;;4.22;0.60;;;;;;;;;;5019852;28;20037;-43
2023/05/05 09:41:44;;;;;;;2.78;0.50;;;;;;;;;;5018932;28;20045;-43
2023/05/05 09:44:11;;;;;;;0.35;0.35;;;;;;;;;;5023151;28;20041;-41
2023/05/05 09:46:37;;;;;;;1.60;0.70;;;;;;;;;;5017087;28;20038;-43
2023/05/05 09:49:25;;;;;;;1.30;0.60;;;;;;;;;;5017928;28;20065;-41
2023/05/05 09:51:51;;;;;;;3.65;0.47;;;;;;;;;;5013671;28;20554;-42
2023/05/05 09:54:29;;;;;;;1.05;0.75;;;;;;;;;;5024249;28;20025;-44
2023/05/05 09:56:56;;;;;;;2.15;0.50;;;;;;;;;;5021056;28;20033;-44
2023/05/05 09:59:22;;;;;;;0.68;0.40;;;;;;;;;;5022418;28;20136;-47
2023/05/05 10:01:48;;;;;;;5.97;0.70;;;;;;;;;;5022515;28;20045;-43
2023/05/05 10:04:27;;;;;;;0.50;0.50;;;;;;;;;;5016027;28;20034;-43
2023/05/05 10:06:55;;;;;;;2.28;0.40;;;;;;;;;;5018740;28;20410;-45
2023/05/05 10:09:20;;;;;;;1.17;0.57;;;;;;;;;;5020623;28;20047;-44
2023/05/05 10:11:46;;;;;;;4.72;0.50;;;;;;;;;;5021097;28;20033;-44
2023/05/05 10:14:14;;;;;;;0.63;0.60;;;;;;;;;;5021958;28;20065;-42
2023/05/05 10:16:49;;;;;;;3.13;0.55;;;;;;;;;;5020241;28;20544;-44
2023/05/05 10:19:17;;;;;;;3.20;0.50;;;;;;;;;;5020500;28;20523;-46
2023/05/05 10:21:47;;;;;;;2.92;0.65;;;;;;;;;;5023876;28;20084;-46
2023/05/05 10:24:21;;;;;;;0.52;0.52;;;;;;;;;;5020894;28;20061;-43
2023/05/05 10:26:48;;;;;;;2.85;0.88;;;;;;;;;;5020447;28;20513;-42
2023/05/05 10:29:42;;;;;;;1.58;0.50;;;;;;;;;;5018231;28;20036;-43
2023/05/05 10:32:16;;;;;;;1.05;0.60;;;;;;;;;;5019696;28;20095;-44
2023/05/05 10:35:03;;;;;;;2.78;0.65;;;;;;;;;;5020999;28;20040;-45
2023/05/05 10:37:29;;;;;;;0.52;0.40;;;;;;;;;;5016203;28;20033;-42
2023/05/05 10:39:56;;;;;;;1.15;0.45;;;;;;;;;;5023256;28;20048;-42
2023/05/05 10:42:22;;;;;;;4.05;0.68;;;;;;;;;;5015906;28;20038;-42
2023/05/05 10:44:48;;;;;;;1.98;0.60;;;;;;;;;;5021150;28;20033;-44
2023/05/05 10:47:15;;;;;;;0.68;0.50;;;;;;;;;;5020169;28;20045;-45
2023/05/05 10:49:50;;;;;;;0.88;0.55;;;;;;;;;;5026215;28;20033;-43
2023/05/05 10:52:39;;;;;;;2.00;0.45;;;;;;;;;;5026799;28;20048;-43
2023/05/05 10:55:11;;;;;;;5.18;0.55;;;;;;;;;;5027163;28;20151;-42
2023/05/05 10:57:39;;;;;;;;;;;;;;;;;;5023568;28;20057;-46
2023/05/05 11:00:07;;;;;;;0.75;0.40;;;;;;;;;;5025095;28;19970;-45
2023/05/05 11:02:32;;;;;;;0.52;0.50;;;;;;;;;;5024180;28;20037;-45
2023/05/05 11:05:20;;;;;;;0.50;0.50;;;;;;;;;;5018665;28;20029;-43
2023/05/05 11:07:50;;;;;;;1.13;0.38;;;;;;;;;;5023058;28;20040;-43
2023/05/05 11:10:19;;;;;;;0.38;0.38;;;;;;;;;;5018968;28;20104;-43
2023/05/05 11:12:50;;;;;;;0.70;0.70;;;;;;;;;;5023336;28;20029;-42
2023/05/05 11:15:25;;;;;;;0.30;0.30;;;;;;;;;;5025803;28;20120;-44
2023/05/05 11:17:51;;;;;;;0.30;0.30;;;;;;;;;;5021002;28;20061;-42
2023/05/05 11:20:17;;;;;;;0.40;0.40;;;;;;;;;;5021539;28;20459;-44
2023/05/05 11:23:00;;;;;;;0.47;0.38;;;;;;;;;;5023011;28;20052;-42
2023/05/05 11:25:35;;;;;;;0.60;0.45;;;;;;;;;;5021231;28;20041;-42
2023/05/05 11:28:17;;;;;;;0.88;0.60;;;;;;;;;;5024587;28;20030;-42
2023/05/05 11:30:54;;;;;;;0.45;0.40;;;;;;;;;;5021397;28;20053;-42
2023/05/05 11:33:30;;;;;;;1.83;0.30;;;;;;;;;;5023804;28;20049;-43
2023/05/05 11:36:03;;;;;;;0.52;0.50;;;;;;;;;;5018213;28;20033;-43
2023/05/05 11:38:37;;;;;;;0.90;0.73;;;;;;;;;;5019704;28;20022;-42
2023/05/05 11:41:17;;;;;;;0.77;0.45;;;;;;;;;;5021519;28;20405;-42
2023/05/05 11:43:43;;;;;;;0.85;0.47;;;;;;;;;;5025580;28;20079;-41
2023/05/05 11:46:15;;;;;;;3.15;0.50;;;;;;;;;;5022777;28;20034;-42
2023/05/05 11:48:46;;;;;;;0.47;0.30;;;;;;;;;;5024290;28;20022;-42
2023/05/05 11:51:13;;;;;;;3.85;0.60;;;;;;;;;;5020668;28;20596;-43
2023/05/05 11:53:46;;;;;;;2.83;0.47;;;;;;;;;;5021813;28;20018;-41
2023/05/05 11:56:22;;;;;;;0.63;0.50;;;;;;;;;;5035320;28;20084;-43
2023/05/05 11:59:03;;;;;;;1.67;0.32;;;;;;;;;;5021526;28;20041;-42
2023/05/05 12:01:28;;;;;;;1.20;0.50;;;;;;;;;;5022983;28;20104;-42
2023/05/05 12:03:54;;;;;;;0.60;0.60;;;;;;;;;;5021860;28;20029;-46
2023/05/05 12:06:19;;;;;;;4.13;0.50;;;;;;;;;;5021020;28;20037;-42
2023/05/05 12:08:45;;;;;;;0.60;0.45;;;;;;;;;;5022702;28;20061;-44
2023/05/05 12:11:10;;;;;;;0.82;0.40;;;;;;;;;;5020828;28;20042;-42
2023/05/05 12:13:36;;;;;;;2.08;0.57;;;;;;;;;;5025405;28;20401;-42
2023/05/05 12:16:08;;;;;;;1.85;0.70;;;;;;;;;;5022627;28;20056;-42
2023/05/05 12:18:33;;;;;;;0.68;0.40;;;;;;;;;;5021238;28;20095;-43
2023/05/05 12:20:59;;;;;;;0.88;0.60;;;;;;;;;;5019894;28;20513;-42
2023/05/05 12:23:28;;;;;;;0.70;0.40;;;;;;;;;;5022803;28;20025;-43
2023/05/05 12:25:54;;;;;;;1.35;0.57;;;;;;;;;;5022170;28;20056;-43
2023/05/05 12:28:19;;;;;;;1.40;0.50;;;;;;;;;;5023730;28;20526;-42
2023/05/05 12:30:56;;;;;;;3.95;0.57;;;;;;;;;;5020960;28;20044;-42
2023/05/05 12:33:22;;;;;;;0.40;0.40;;;;;;;;;;5019092;28;20030;-43
2023/05/05 12:35:47;;;;;;;1.10;0.47;;;;;;;;;;5020664;28;20033;-43
2023/05/05 12:38:14;;;;;;;0.75;0.43;;;;;;;;;;5021433;28;20025;-43
2023/05/05 12:40:45;;;;;;;0.60;0.60;;;;;;;;;;5019651;28;20137;-42
2023/05/05 12:43:42;;;;;;;0.45;0.40;;;;;;;;;;5023838;28;20421;-42
2023/05/05 12:46:11;;;;;;;0.57;0.57;;;;;;;;;;4963726;28;20125;-42
2023/05/05 12:48:38;;;;;;;0.50;0.50;;;;;;;;;;4964799;28;20066;-42
2023/05/05 12:51:22;;;;;;;2.53;0.60;;;;;;;;;;4965249;28;20043;-42
2023/05/05 12:53:59;;;;;;;0.82;0.60;;;;;;;;;;4966097;28;20027;-43
2023/05/05 12:56:35;;;;;;;1.15;0.68;;;;;;;;;;4966020;28;20443;-43
2023/05/05 12:59:06;;;;;;;2.22;0.90;;;;;;;;;;4962720;28;20508;-44
2023/05/05 13:01:32;;;;;;;0.50;0.50;;;;;;;;;;4966567;28;20058;-43
2023/05/05 13:04:06;;;;;;;2.83;0.40;;;;;;;;;;4964469;28;20423;-42
2023/05/05 13:06:32;;;;;;;5.47;0.88;;;;;;;;;;4965253;28;20130;-43
2023/05/05 13:08:57;;;;;;;6.40;1.02;;;;;;;;;;4960587;28;20139;-42
2023/05/05 13:11:23;;;;;;;0.93;0.55;;;;;;;;;;4963450;28;20220;-44
2023/05/05 13:13:48;;;;;;;1.48;0.55;;;;;;;;;;4964232;28;20030;-43
2023/05/05 13:16:14;;;;;;;4.28;0.60;;;;;;;;;;4965368;28;20535;-43
2023/05/05 13:18:46;;;;;;;2.28;0.70;;;;;;;;;;4961916;28;20035;-43
2023/05/05 13:21:11;;;;;;;2.90;0.50;;;;;;;;;;4978716;28;20110;-42
2023/05/05 13:23:37;;;;;;;3.88;0.60;;;;;;;;;;5023148;28;20475;-41
2023/05/05 13:26:03;;;;;;;2.25;0.80;;;;;;;;;;5021237;28;20170;-42
2023/05/05 13:28:28;;;;;;;4.40;0.52;;;;;;;;;;5021152;28;20040;-44
2023/05/05 13:30:54;;;;;;;4.78;0.90;;;;;;;;;;5020700;28;20030;-42
2023/05/05 13:33:20;;;;;;;3.63;0.50;;;;;;;;;;5023768;28;20014;-42
2023/05/05 13:35:45;;;;;;;1.95;0.50;;;;;;;;;;5018516;28;20527;-44
2023/05/05 13:38:10;;;;;;;0.52;0.50;;;;;;;;;;5024229;28;20029;-44
2023/05/05 13:40:36;;;;;;;2.30;0.50;;;;;;;;;;5019998;28;20468;-43
2023/05/05 13:43:01;;;;;;;2.35;0.40;;;;;;;;;;5022407;28;20033;-44
2023/05/05 13:45:27;;;;;;;5.32;0.55;;;;;;;;;;5018471;28;20470;-42
2023/05/05 13:47:52;;;;;;;0.68;0.68;;;;;;;;;;5021143;28;20489;-44
2023/05/05 13:50:17;;;;;;;3.33;0.45;;;;;;;;;;5018237;28;20045;-43
2023/05/05 13:52:43;;;;;;;0.65;0.60;;;;;;;;;;5022911;28;20037;-43
2023/05/05 13:55:09;;;;;;;2.90;0.60;;;;;;;;;;5019859;28;20089;-42
2023/05/05 13:57:35;;;;;;;7.80;0.70;;;;;;;;;;5020457;28;20050;-43
2023/05/05 14:00:01;;;;;;;2.95;1.05;;;;;;;;;;5021818;28;20041;-42
2023/05/05 14:02:26;;;;;;;2.30;0.40;;;;;;;;;;5020492;28;20034;-42
2023/05/05 14:04:51;;;;;;;4.80;0.68;;;;;;;;;;5019738;28;20074;-45
2023/05/05 14:07:17;;;;;;;0.77;0.47;;;;;;;;;;5021813;28;20084;-42
2023/05/05 14:09:42;;;;;;;2.72;0.60;;;;;;;;;;5022024;28;20034;-42
2023/05/05 14:12:07;;;;;;;4.85;0.60;;;;;;;;;;5024001;28;20107;-44
2023/05/05 14:14:33;;;;;;;5.07;1.60;;;;;;;;;;5019243;28;20488;-42
2023/05/05 14:16:58;;;;;;;8.25;4.38;;;;;;;;;;5021359;28;20072;-42
2023/05/05 14:19:24;;;;;;;4.65;0.82;;;;;;;;;;5021126;28;20811;-43
2023/05/05 14:21:49;;;;;;;3.95;0.88;;;;;;;;;;5022375;28;20053;-42
2023/05/05 14:24:15;;;;;;;3.30;0.63;;;;;;;;;;5019485;28;20009;-48
2023/05/05 14:26:40;;;;;;;1.10;1.00;;;;;;;;;;5024038;28;20037;-46
2023/05/05 14:29:06;;;;;;;4.30;0.60;;;;;;;;;;5027637;28;20219;-46
2023/05/05 14:31:31;;;;;;;1.45;0.70;;;;;;;;;;5022750;28;20041;-42
2023/05/05 14:33:56;;;;;;;1.38;0.60;;;;;;;;;;5024011;28;20022;-43
2023/05/05 14:36:22;;;;;;;5.47;0.77;;;;;;;;;;5019553;28;20052;-42
2023/05/05 14:38:47;;;;;;;1.25;0.50;;;;;;;;;;5023026;28;20037;-43
2023/05/05 14:41:13;;;;;;;6.22;0.60;;;;;;;;;;5024202;28;20041;-47
2023/05/05 14:43:38;;;;;;;0.90;0.60;;;;;;;;;;5024270;28;20021;-44
2023/05/05 14:46:05;;;;;;;0.95;0.55;;;;;;;;;;5020379;28;20392;-42
2023/05/05 14:48:32;;;;;;;0.50;0.50;;;;;;;;;;5021682;28;20351;-47
2023/05/05 14:50:57;;;;;;;0.98;0.50;;;;;;;;;;5024172;28;20107;-43
2023/05/05 14:53:23;;;;;;;0.73;0.65;;;;;;;;;;5024617;28;20494;-43
2023/05/05 14:55:48;;;;;;;3.33;0.55;;;;;;;;;;5021835;28;20037;-48